Meteo Giornale » Osservazioni meteo Stati Uniti (USA) » Elkins-Jennings Randolph Fld
ore: 08:51 - Osservazioni Meteo Elkins-Jennings Randolph Fld
Lat. 38° 53' N Lon. 79° 51' W Alt. 605 metri s.l.m.
21 °C
Sereno
Temp. 24 Ore
18 °C
30 °C
Nord
0 Km/h
Dew point 20 °C
Umidità 94 %
Visibilità 11 Km
Il sole sorge alle ore 06:48
Il sole tramonta alle ore 19:50
| Data e Ora | Cielo e Fenomeni | T °C | DP °C | Um. % | Pres. hPa | Vis. km | Vento km/h | |
|---|---|---|---|---|---|---|---|---|
| Oggi h: 08:51 | Sereno | 21 | 20 | 94 | 1022 | 11 | N 0 | |
| Oggi h: 07:51 | Poco Nuvoloso | 19 | 19 | 100 | 1022 | 11 | N 0 | |
| Oggi h: 06:51 | Molto Nuvoloso | 18 | 18 | 100 | 1022 | 14 | N 0 | |
| Oggi h: 06:08 | Foschia | 18 | 18 | 100 | 1021 | 5 | N 0 | |
| Oggi h: 05:59 | Foschia | 18 | 18 | 100 | 1021 | 2 | N 0 | |
| Oggi h: 05:51 | Foschia | 18 | 18 | 100 | 1021 | 3 | N 0 | |
| Oggi h: 05:17 | Foschia | 18 | 18 | 100 | 1021 | 6 | N 0 | |
| Oggi h: 05:09 | Foschia | 18 | 18 | 100 | 1021 | 2 | N 0 | |
| Oggi h: 04:51 | Foschia | 18 | 18 | 100 | 1021 | 6 | N 0 | |
| Oggi h: 03:51 | Sereno | 19 | 19 | 100 | 1021 | 13 | N 0 | |
| Oggi h: 03:06 | Foschia | 18 | 18 | 100 | 1021 | 5 | N 0 | |
| Oggi h: 03:00 | Foschia | 18 | 18 | 100 | 1021 | 2 | N 0 | |
| Oggi h: 02:51 | Foschia | 18 | 18 | 100 | 1021 | 2 | N 0 | |
| Oggi h: 02:43 | Foschia | 18 | 18 | 100 | 1021 | 5 | N 0 | |
| Oggi h: 02:38 | Foschia | 18 | 18 | 100 | 1021 | 2 | N 0 | |
| Oggi h: 02:27 | Foschia | 18 | 18 | 100 | 1021 | 5 | N 0 | |
| Oggi h: 02:20 | Foschia | 18 | 18 | 100 | 1021 | 2 | N 0 | |
| Oggi h: 02:11 | Foschia | 18 | 18 | 100 | 1021 | 5 | N 0 | |
| Oggi h: 02:07 | Foschia | 18 | 18 | 100 | 1021 | 2 | N 0 | |
| Oggi h: 01:54 | Foschia | 18 | 18 | 100 | 1022 | 5 | N 0 | |
| Oggi h: 01:51 | Foschia | 18 | 18 | 100 | 1022 | 2 | N 0 | |
| Oggi h: 01:49 | Foschia | 18 | 18 | 100 | 1022 | 2 | N 5.5 | |
| Oggi h: 01:43 | Foschia | 18 | 18 | 100 | 1022 | 5 | N 0 | |
| Oggi h: 01:36 | Foschia | 18 | 18 | 100 | 1022 | 2 | N 0 | |
| Oggi h: 01:03 | Foschia | 19 | 19 | 100 | 1022 | 5 | N 0 | |
| Oggi h: 01:00 | Foschia | 19 | 19 | 100 | 1022 | 2 | N 0 | |
| Oggi h: 00:51 | Foschia | 18 | 18 | 100 | 1022 | 5 | N 0 | |
| Oggi h: 00:31 | Foschia | 18 | 18 | 100 | 1022 | 5 | N 0 | |
| Oggi h: 00:26 | Foschia | 19 | 19 | 100 | 1022 | 2 | N 0 | |
| Oggi h: 00:16 | Foschia | 19 | 19 | 100 | 1022 | 5 | N 0 | |
| Oggi h: 00:03 | Foschia | 19 | 19 | 100 | 1022 | 2 | N 0 | |
| Ieri h: 23:58 | Foschia | 19 | 19 | 100 | 1022 | 6 | N 0 | |
| Ieri h: 23:51 | Foschia | 19 | 19 | 100 | 1022 | 2 | N 0 | |
| Ieri h: 22:51 | Sereno | 20 | 20 | 100 | 1022 | 11 | N 0 | |
| Ieri h: 21:51 | Foschia | 21 | 21 | 100 | 1022 | 5 | N 0 | |
| Ieri h: 20:51 | Foschia | 21 | 21 | 100 | 1021 | 10 | N 0 | |
| Ieri h: 19:51 | Sereno | 23 | 22 | 94 | 1021 | 14 | N 0 | |
| Ieri h: 18:51 | Pioggia | 24 | 23 | 94 | 1021 | 14 | N 5.5 | |
| Ieri h: 17:51 | Molto Nuvoloso | 27 | 21 | 69 | 1021 | 10 | N 5.5 | |
| Ieri h: 16:51 | Molto Nuvoloso | 30 | 21 | 58 | 1021 | 10 | N 9.3 | |
| Ieri h: 15:51 | Nuvoloso | 29 | 21 | 62 | 1022 | 10 | O 9.3 | |
| Ieri h: 14:51 | Nuvoloso | 27 | 21 | 69 | 1022 | 10 | N 5.5 | |
| Ieri h: 13:51 | Coperto | 26 | 22 | 78 | 1023 | 10 | N 0 | |
| Ieri h: 12:51 | Nuvoloso | 25 | 22 | 83 | 1023 | 10 | N 0 | |
| Ieri h: 11:51 | Poco Nuvoloso | 25 | 21 | 78 | 1023 | 10 | N 0 | |
| Ieri h: 10:51 | Molto Nuvoloso | 22 | 21 | 94 | 1023 | 10 | N 0 | |
| Ieri h: 09:51 | Coperto | 21 | 19 | 88 | 1023 | 10 | N 0 | |



